sensor_id;sensor_type;location;lat;lon;timestamp;P1;durP1;ratioP1;P2;durP2;ratioP2
61385;SDS011;47256;18.904;-99.054;2023-05-10T20:09:41;26.75;;;22.02;;
61385;SDS011;47256;18.904;-99.054;2023-05-10T20:12:09;31.55;;;23.35;;
61385;SDS011;47256;18.904;-99.054;2023-05-10T20:14:37;27.73;;;22.02;;
61385;SDS011;47256;18.904;-99.054;2023-05-10T20:17:04;36.67;;;22.95;;
61385;SDS011;47256;18.904;-99.054;2023-05-10T20:19:32;26.67;;;21.40;;
61385;SDS011;47256;18.904;-99.054;2023-05-10T20:21:59;23.27;;;18.98;;
61385;SDS011;47256;18.904;-99.054;2023-05-10T20:24:27;30.63;;;20.08;;
61385;SDS011;47256;18.904;-99.054;2023-05-10T20:26:54;27.98;;;20.88;;
61385;SDS011;47256;18.904;-99.054;2023-05-10T20:29:21;30.95;;;20.98;;
61385;SDS011;47256;18.904;-99.054;2023-05-10T20:31:49;29.20;;;21.17;;
61385;SDS011;47256;18.904;-99.054;2023-05-10T20:34:16;28.02;;;22.27;;
61385;SDS011;47256;18.904;-99.054;2023-05-10T20:36:43;25.83;;;21.52;;
61385;SDS011;47256;18.904;-99.054;2023-05-10T20:39:11;26.55;;;22.25;;
61385;SDS011;47256;18.904;-99.054;2023-05-10T20:41:39;26.05;;;21.35;;
61385;SDS011;47256;18.904;-99.054;2023-05-10T20:44:07;32.42;;;23.10;;
61385;SDS011;47256;18.904;-99.054;2023-05-10T20:46:34;25.30;;;21.65;;
61385;SDS011;47256;18.904;-99.054;2023-05-10T20:49:01;30.98;;;22.15;;
61385;SDS011;47256;18.904;-99.054;2023-05-10T20:51:29;28.45;;;22.90;;
61385;SDS011;47256;18.904;-99.054;2023-05-10T20:53:58;28.95;;;21.98;;
61385;SDS011;47256;18.904;-99.054;2023-05-10T20:56:29;31.55;;;22.85;;
61385;SDS011;47256;18.904;-99.054;2023-05-10T20:58:56;27.50;;;23.17;;
61385;SDS011;47256;18.904;-99.054;2023-05-10T21:01:24;31.85;;;25.20;;
61385;SDS011;47256;18.904;-99.054;2023-05-10T21:03:52;30.00;;;22.73;;
61385;SDS011;47256;18.904;-99.054;2023-05-10T21:06:20;27.30;;;23.27;;
61385;SDS011;47256;18.904;-99.054;2023-05-10T21:08:47;31.38;;;22.90;;
61385;SDS011;47256;18.904;-99.054;2023-05-10T21:11:14;27.98;;;20.85;;
61385;SDS011;47256;18.904;-99.054;2023-05-10T21:13:41;29.23;;;23.27;;
61385;SDS011;47256;18.904;-99.054;2023-05-10T21:16:08;35.53;;;23.70;;
61385;SDS011;47256;18.904;-99.054;2023-05-10T21:18:35;33.67;;;24.58;;
61385;SDS011;47256;18.904;-99.054;2023-05-10T21:21:03;34.47;;;23.52;;
61385;SDS011;47256;18.904;-99.054;2023-05-10T21:23:30;29.50;;;24.25;;
61385;SDS011;47256;18.904;-99.054;2023-05-10T21:25:57;33.58;;;24.88;;
61385;SDS011;47256;18.904;-99.054;2023-05-10T21:28:25;31.42;;;24.80;;
61385;SDS011;47256;18.904;-99.054;2023-05-10T21:30:52;30.05;;;23.88;;
61385;SDS011;47256;18.904;-99.054;2023-05-10T21:33:19;30.05;;;21.50;;
61385;SDS011;47256;18.904;-99.054;2023-05-10T21:35:46;29.25;;;22.33;;
61385;SDS011;47256;18.904;-99.054;2023-05-10T21:38:13;27.40;;;20.95;;
61385;SDS011;47256;18.904;-99.054;2023-05-10T21:40:41;113.68;;;32.00;;
61385;SDS011;47256;18.904;-99.054;2023-05-10T21:43:08;43.03;;;23.63;;
61385;SDS011;47256;18.904;-99.054;2023-05-10T21:45:36;32.25;;;23.00;;
61385;SDS011;47256;18.904;-99.054;2023-05-10T21:48:05;30.80;;;22.45;;
61385;SDS011;47256;18.904;-99.054;2023-05-10T21:50:32;29.65;;;22.25;;
61385;SDS011;47256;18.904;-99.054;2023-05-10T21:52:59;38.17;;;22.80;;
61385;SDS011;47256;18.904;-99.054;2023-05-10T21:55:27;31.98;;;22.15;;
61385;SDS011;47256;18.904;-99.054;2023-05-10T21:57:54;29.38;;;20.90;;
61385;SDS011;47256;18.904;-99.054;2023-05-10T22:00:22;29.30;;;21.23;;
61385;SDS011;47256;18.904;-99.054;2023-05-10T22:02:49;34.22;;;21.75;;
61385;SDS011;47256;18.904;-99.054;2023-05-10T22:05:17;31.98;;;22.20;;
61385;SDS011;47256;18.904;-99.054;2023-05-10T22:07:45;29.77;;;22.70;;
61385;SDS011;47256;18.904;-99.054;2023-05-10T22:10:12;46.05;;;23.15;;
61385;SDS011;47256;18.904;-99.054;2023-05-10T22:12:39;36.25;;;23.65;;
61385;SDS011;47256;18.904;-99.054;2023-05-10T22:15:07;40.15;;;24.63;;
61385;SDS011;47256;18.904;-99.054;2023-05-10T22:17:36;24.05;;;16.60;;
61385;SDS011;47256;18.904;-99.054;2023-05-10T22:20:06;27.98;;;18.27;;
61385;SDS011;47256;18.904;-99.054;2023-05-10T22:22:34;27.17;;;15.60;;
61385;SDS011;47256;18.904;-99.054;2023-05-10T22:25:01;23.67;;;15.05;;
61385;SDS011;47256;18.904;-99.054;2023-05-10T22:27:29;14.85;;;11.82;;
61385;SDS011;47256;18.904;-99.054;2023-05-10T22:29:57;22.25;;;12.35;;
61385;SDS011;47256;18.904;-99.054;2023-05-10T22:32:24;20.88;;;12.65;;
61385;SDS011;47256;18.904;-99.054;2023-05-10T22:34:51;22.60;;;12.23;;
61385;SDS011;47256;18.904;-99.054;2023-05-10T22:37:18;19.08;;;11.85;;
61385;SDS011;47256;18.904;-99.054;2023-05-10T22:39:46;18.45;;;12.55;;
61385;SDS011;47256;18.904;-99.054;2023-05-10T22:42:13;15.73;;;9.85;;
61385;SDS011;47256;18.904;-99.054;2023-05-10T22:44:41;21.65;;;7.75;;
61385;SDS011;47256;18.904;-99.054;2023-05-10T22:47:09;17.75;;;6.63;;
61385;SDS011;47256;18.904;-99.054;2023-05-10T22:49:36;35.17;;;8.43;;
61385;SDS011;47256;18.904;-99.054;2023-05-10T22:52:03;28.35;;;9.15;;
61385;SDS011;47256;18.904;-99.054;2023-05-10T22:54:30;23.42;;;9.63;;
61385;SDS011;47256;18.904;-99.054;2023-05-10T22:56:57;19.02;;;9.88;;
61385;SDS011;47256;18.904;-99.054;2023-05-10T22:59:25;21.38;;;10.10;;
61385;SDS011;47256;18.904;-99.054;2023-05-10T23:01:53;18.95;;;9.63;;
61385;SDS011;47256;18.904;-99.054;2023-05-10T23:04:20;17.38;;;8.90;;
61385;SDS011;47256;18.904;-99.054;2023-05-10T23:06:48;20.08;;;9.52;;
61385;SDS011;47256;18.904;-99.054;2023-05-10T23:09:15;23.42;;;9.30;;
61385;SDS011;47256;18.904;-99.054;2023-05-10T23:11:43;26.20;;;10.32;;
61385;SDS011;47256;18.904;-99.054;2023-05-10T23:14:12;18.95;;;11.32;;
61385;SDS011;47256;18.904;-99.054;2023-05-10T23:16:39;19.50;;;10.63;;
61385;SDS011;47256;18.904;-99.054;2023-05-10T23:19:06;13.15;;;8.35;;
61385;SDS011;47256;18.904;-99.054;2023-05-10T23:21:34;25.65;;;7.60;;
61385;SDS011;47256;18.904;-99.054;2023-05-10T23:24:02;23.55;;;9.48;;
61385;SDS011;47256;18.904;-99.054;2023-05-10T23:26:29;22.05;;;8.60;;
61385;SDS011;47256;18.904;-99.054;2023-05-10T23:28:57;16.75;;;8.55;;
61385;SDS011;47256;18.904;-99.054;2023-05-10T23:31:26;19.88;;;9.93;;
61385;SDS011;47256;18.904;-99.054;2023-05-10T23:33:53;27.88;;;9.43;;
61385;SDS011;47256;18.904;-99.054;2023-05-10T23:36:20;14.70;;;8.85;;
61385;SDS011;47256;18.904;-99.054;2023-05-10T23:38:48;13.10;;;8.32;;
61385;SDS011;47256;18.904;-99.054;2023-05-10T23:41:15;14.02;;;8.98;;
61385;SDS011;47256;18.904;-99.054;2023-05-10T23:43:42;20.50;;;12.82;;
61385;SDS011;47256;18.904;-99.054;2023-05-10T23:46:09;21.90;;;14.02;;
61385;SDS011;47256;18.904;-99.054;2023-05-10T23:48:36;24.70;;;14.75;;
61385;SDS011;47256;18.904;-99.054;2023-05-10T23:51:03;19.63;;;14.48;;
61385;SDS011;47256;18.904;-99.054;2023-05-10T23:53:31;29.20;;;16.63;;
61385;SDS011;47256;18.904;-99.054;2023-05-10T23:55:58;27.90;;;15.77;;
61385;SDS011;47256;18.904;-99.054;2023-05-10T23:58:25;24.02;;;16.02;;
